createdAt,value
2019-05-31T00:01:31.546Z,21.57
2019-05-31T00:04:01.615Z,22.47
2019-05-31T00:06:31.852Z,25.10
2019-05-31T00:09:02.049Z,22.83
2019-05-31T00:11:32.117Z,23.77
2019-05-31T00:14:18.979Z,23.80
2019-05-31T00:16:35.142Z,22.73
2019-05-31T00:19:04.969Z,24.37
2019-05-31T00:21:34.653Z,23.23
2019-05-31T00:24:04.390Z,24.43
2019-05-31T00:26:34.046Z,24.93
2019-05-31T00:29:03.719Z,24.47
2019-05-31T00:31:31.317Z,23.23
2019-05-31T00:34:03.737Z,25.07
2019-05-31T00:36:33.530Z,23.87
2019-05-31T00:39:05.237Z,24.23
2019-05-31T00:41:34.927Z,23.90
2019-05-31T00:44:05.676Z,23.67
2019-05-31T00:46:35.566Z,24.60
2019-05-31T00:49:05.995Z,24.27
2019-05-31T00:51:36.001Z,24.40
2019-05-31T00:54:06.410Z,24.10
2019-05-31T00:56:36.385Z,23.63
2019-05-31T00:59:06.994Z,22.93
2019-05-31T01:01:36.701Z,24.13
2019-05-31T01:04:07.415Z,23.10
2019-05-31T01:06:37.300Z,23.13
2019-05-31T01:09:10.771Z,22.67
2019-05-31T01:11:40.460Z,22.93
2019-05-31T01:14:10.502Z,22.83
2019-05-31T01:16:40.110Z,22.93
2019-05-31T01:19:09.866Z,23.33
2019-05-31T01:21:39.644Z,22.90
2019-05-31T01:24:09.490Z,22.07
2019-05-31T01:26:39.119Z,23.30
2019-05-31T01:29:09.870Z,23.57
2019-05-31T01:31:40.796Z,22.57
2019-05-31T01:34:10.437Z,22.00
2019-05-31T01:36:40.014Z,23.57
2019-05-31T01:39:11.380Z,23.73
2019-05-31T01:41:40.947Z,22.33
2019-05-31T01:44:11.430Z,22.37
2019-05-31T01:46:41.096Z,22.17
2019-05-31T01:49:11.938Z,22.50
2019-05-31T01:51:41.772Z,21.83
2019-05-31T01:54:12.563Z,21.03
2019-05-31T01:56:42.194Z,21.80
2019-05-31T01:59:12.840Z,22.23
2019-05-31T02:01:42.738Z,22.57
2019-05-31T02:04:12.356Z,22.70
2019-05-31T02:06:42.006Z,21.20
2019-05-31T02:09:12.820Z,21.33
2019-05-31T02:11:42.877Z,21.23
2019-05-31T02:14:12.664Z,20.30
2019-05-31T02:16:42.893Z,20.60
2019-05-31T02:19:13.077Z,20.90
2019-05-31T02:21:44.513Z,19.87
2019-05-31T02:24:14.216Z,20.33
2019-05-31T02:26:43.763Z,20.57
2019-05-31T02:29:13.746Z,20.30
2019-05-31T02:31:43.583Z,19.83
2019-05-31T02:34:14.724Z,17.90
2019-05-31T02:36:44.476Z,19.53
2019-05-31T02:39:16.660Z,18.37
2019-05-31T02:41:46.263Z,19.40
2019-05-31T02:44:18.426Z,19.33
2019-05-31T02:46:47.862Z,19.63
2019-05-31T02:49:18.413Z,18.30
2019-05-31T02:52:08.373Z,18.53
2019-05-31T02:54:39.422Z,19.70
2019-05-31T02:57:12.795Z,19.23
2019-05-31T02:59:45.762Z,19.23
2019-05-31T03:02:17.323Z,19.20
2019-05-31T03:04:48.899Z,18.73
2019-05-31T03:07:19.210Z,20.90
2019-05-31T03:09:55.762Z,18.80
2019-05-31T03:12:27.687Z,17.73
2019-05-31T03:14:59.279Z,19.00
2019-05-31T03:17:29.452Z,18.80
2019-05-31T03:20:00.846Z,18.03
2019-05-31T03:22:30.439Z,18.10
2019-05-31T03:25:00.046Z,18.33
2019-05-31T03:27:29.732Z,19.50
2019-05-31T03:29:59.325Z,18.57
2019-05-31T03:32:38.088Z,17.17
2019-05-31T03:35:00.194Z,18.67
2019-05-31T03:37:29.799Z,18.70
2019-05-31T03:39:59.339Z,18.17
2019-05-31T03:42:29.543Z,17.93
2019-05-31T03:44:59.061Z,16.93
2019-05-31T03:47:28.596Z,17.37
2019-05-31T03:49:58.280Z,17.83
2019-05-31T03:52:27.895Z,18.27
2019-05-31T03:54:57.470Z,16.30
2019-05-31T03:57:27.654Z,17.50
2019-05-31T03:59:57.378Z,18.37
2019-05-31T04:02:26.966Z,17.97
2019-05-31T04:04:56.939Z,19.20
2019-05-31T04:07:26.963Z,19.23
2019-05-31T04:09:56.715Z,20.73
2019-05-31T04:12:26.846Z,20.00
2019-05-31T04:14:56.881Z,21.10
2019-05-31T04:17:27.827Z,19.07
2019-05-31T04:19:57.841Z,22.20
2019-05-31T04:22:27.453Z,21.60
2019-05-31T04:24:56.986Z,20.37
2019-05-31T04:27:27.095Z,21.73
2019-05-31T04:29:57.018Z,20.50
2019-05-31T04:32:26.992Z,22.20
2019-05-31T04:34:56.953Z,22.30
2019-05-31T04:37:26.649Z,22.00
2019-05-31T04:39:56.205Z,23.00
2019-05-31T04:42:27.365Z,22.90
2019-05-31T04:44:57.033Z,22.70
2019-05-31T04:47:27.169Z,21.57
2019-05-31T04:49:57.328Z,21.47
2019-05-31T04:52:27.074Z,22.50
2019-05-31T04:54:56.831Z,22.20
2019-05-31T04:57:26.752Z,23.17
2019-05-31T04:59:59.586Z,21.83
2019-05-31T05:02:29.184Z,22.70
2019-05-31T05:04:58.811Z,22.03
2019-05-31T05:07:28.347Z,23.10
2019-05-31T05:09:57.904Z,23.30
2019-05-31T05:12:28.447Z,24.40
2019-05-31T05:14:57.980Z,22.30
2019-05-31T05:17:40.082Z,24.00
2019-05-31T05:19:58.979Z,26.63
2019-05-31T05:22:28.704Z,23.70
2019-05-31T05:24:58.356Z,24.20
2019-05-31T05:27:28.000Z,23.30
2019-05-31T05:29:57.555Z,23.67
2019-05-31T05:32:28.047Z,23.63
2019-05-31T05:35:00.253Z,23.13
2019-05-31T05:37:29.849Z,24.30
2019-05-31T05:39:59.457Z,25.53
2019-05-31T05:42:29.233Z,23.37
2019-05-31T05:44:59.178Z,23.27
2019-05-31T05:47:42.917Z,23.37
2019-05-31T05:49:59.975Z,22.30
2019-05-31T05:52:30.319Z,22.80
2019-05-31T05:55:00.146Z,20.83
2019-05-31T05:57:31.069Z,20.30
2019-05-31T06:00:01.528Z,19.80
2019-05-31T06:02:31.675Z,18.60
2019-05-31T06:05:01.709Z,17.63
2019-05-31T06:07:32.881Z,18.73
2019-05-31T06:10:02.656Z,17.73
2019-05-31T06:12:33.183Z,17.53
2019-05-31T06:15:03.227Z,17.57
2019-05-31T06:17:33.270Z,17.37
2019-05-31T06:20:03.327Z,16.70
2019-05-31T06:22:35.344Z,16.93
2019-05-31T06:25:06.073Z,17.27
2019-05-31T06:27:38.491Z,17.80
2019-05-31T06:30:09.801Z,17.40
2019-05-31T06:32:39.329Z,16.30
2019-05-31T06:35:10.958Z,16.07
2019-05-31T06:37:40.823Z,17.43
2019-05-31T06:40:11.087Z,15.83
2019-05-31T06:42:40.908Z,16.60
2019-05-31T06:45:11.688Z,16.37
2019-05-31T06:47:41.437Z,15.70
2019-05-31T06:50:11.409Z,15.40
2019-05-31T06:52:41.084Z,15.97
2019-05-31T06:55:12.222Z,16.23
2019-05-31T06:57:41.895Z,14.83
2019-05-31T07:00:12.202Z,14.77
2019-05-31T07:02:41.824Z,13.73
2019-05-31T07:05:11.582Z,15.20
2019-05-31T07:07:47.571Z,14.67
2019-05-31T07:10:14.840Z,13.30
2019-05-31T07:12:45.404Z,13.53
2019-05-31T07:15:15.476Z,16.90
2019-05-31T07:17:54.945Z,12.70
2019-05-31T07:20:17.990Z,13.10
2019-05-31T07:22:47.543Z,12.23
2019-05-31T07:25:17.307Z,11.13
2019-05-31T07:27:48.019Z,11.60
2019-05-31T07:30:19.194Z,10.73
2019-05-31T07:32:48.823Z,10.17
2019-05-31T07:35:19.119Z,10.03
2019-05-31T07:37:48.814Z,9.33
2019-05-31T07:40:18.489Z,10.23
2019-05-31T07:42:48.165Z,9.20
2019-05-31T07:45:18.091Z,8.83
2019-05-31T07:47:47.758Z,8.50
2019-05-31T07:50:17.760Z,9.10
2019-05-31T07:52:47.351Z,9.30
2019-05-31T07:55:17.067Z,9.53
2019-05-31T07:57:46.613Z,9.47
2019-05-31T08:00:16.375Z,8.70
2019-05-31T08:02:45.976Z,9.43
2019-05-31T08:05:15.613Z,10.33
2019-05-31T08:07:45.748Z,9.43
2019-05-31T08:10:15.582Z,9.10
2019-05-31T08:12:45.611Z,9.10
2019-05-31T08:15:15.428Z,10.33
2019-05-31T08:17:53.334Z,9.60
2019-05-31T08:20:16.867Z,9.93
2019-05-31T08:22:46.630Z,10.90
2019-05-31T08:25:16.288Z,11.00
2019-05-31T08:27:46.041Z,9.97
2019-05-31T08:30:15.842Z,9.30
2019-05-31T08:32:45.391Z,9.87
2019-05-31T08:35:16.707Z,9.63
2019-05-31T08:37:46.366Z,8.53
2019-05-31T08:40:17.142Z,8.50
2019-05-31T08:42:46.728Z,8.73
2019-05-31T08:45:19.576Z,8.63
2019-05-31T08:47:48.191Z,7.90
2019-05-31T08:50:18.082Z,8.07
2019-05-31T08:52:49.357Z,7.10
2019-05-31T08:55:18.978Z,10.33
2019-05-31T08:57:49.062Z,7.73
2019-05-31T09:00:19.997Z,8.03
2019-05-31T09:02:49.685Z,8.67
2019-05-31T09:05:19.569Z,7.13
2019-05-31T09:07:49.203Z,6.80
2019-05-31T09:10:20.829Z,6.43
2019-05-31T09:12:50.539Z,6.43
2019-05-31T09:15:21.087Z,8.40
2019-05-31T09:17:50.734Z,6.87
2019-05-31T09:20:22.759Z,7.00
2019-05-31T09:22:52.382Z,5.80
2019-05-31T09:25:22.046Z,6.37
2019-05-31T09:27:56.121Z,6.13
2019-05-31T09:30:23.743Z,5.80
2019-05-31T09:32:53.594Z,6.40
2019-05-31T09:35:23.139Z,5.87
2019-05-31T09:37:52.662Z,6.07
2019-05-31T09:40:22.881Z,7.20
2019-05-31T09:42:54.635Z,6.37
2019-05-31T09:45:24.639Z,6.53
2019-05-31T09:47:54.292Z,7.77
2019-05-31T09:50:25.823Z,8.50
2019-05-31T09:52:55.471Z,6.73
2019-05-31T09:55:25.060Z,6.37
2019-05-31T09:57:55.154Z,6.47
2019-05-31T10:00:27.716Z,6.30
2019-05-31T10:02:57.281Z,6.57
2019-05-31T10:05:27.001Z,8.97
2019-05-31T10:08:09.189Z,9.17
2019-05-31T10:10:28.167Z,6.83
2019-05-31T10:12:58.252Z,7.90
2019-05-31T10:15:27.993Z,5.67
2019-05-31T10:17:57.541Z,5.50
2019-05-31T10:20:31.155Z,5.53
2019-05-31T10:22:59.318Z,5.87
2019-05-31T10:25:28.997Z,5.53
2019-05-31T10:28:00.126Z,5.97
2019-05-31T10:30:29.794Z,7.07
2019-05-31T10:32:59.562Z,5.50
2019-05-31T10:35:29.347Z,8.20
2019-05-31T10:37:58.952Z,6.90
2019-05-31T10:40:28.712Z,6.20
2019-05-31T10:42:58.999Z,5.23
2019-05-31T10:45:28.597Z,5.73
2019-05-31T10:47:58.394Z,5.10
2019-05-31T10:50:42.529Z,5.00
2019-05-31T10:53:00.440Z,5.20
2019-05-31T10:55:30.137Z,6.40
2019-05-31T10:57:59.948Z,4.00
2019-05-31T11:00:29.833Z,4.60
2019-05-31T11:02:59.544Z,4.20
2019-05-31T11:05:30.484Z,5.40
2019-05-31T11:08:00.146Z,4.67
2019-05-31T11:10:30.184Z,4.40
2019-05-31T11:12:59.964Z,4.80
2019-05-31T11:15:31.049Z,4.00
2019-05-31T11:18:00.571Z,5.30
2019-05-31T11:20:30.203Z,4.90
2019-05-31T11:22:59.904Z,6.17
2019-05-31T11:25:29.676Z,5.37
2019-05-31T11:27:59.945Z,4.67
2019-05-31T11:30:30.273Z,4.50
2019-05-31T11:33:00.040Z,4.03
2019-05-31T11:35:29.665Z,3.90
2019-05-31T11:37:59.311Z,4.50
2019-05-31T11:40:28.972Z,4.03
2019-05-31T11:43:08.293Z,4.10
2019-05-31T11:45:30.110Z,5.60
2019-05-31T11:47:59.747Z,6.90
2019-05-31T11:50:30.421Z,4.50
2019-05-31T11:53:00.168Z,4.90
2019-05-31T11:55:30.601Z,3.90
2019-05-31T11:58:00.415Z,4.40
2019-05-31T12:00:30.293Z,4.07
2019-05-31T12:03:02.978Z,4.37
2019-05-31T12:05:31.954Z,4.90
2019-05-31T12:08:01.640Z,13.97
2019-05-31T12:10:32.527Z,5.80
2019-05-31T12:13:02.371Z,5.53
2019-05-31T12:15:32.040Z,5.27
2019-05-31T12:18:01.826Z,4.40
2019-05-31T12:20:31.638Z,6.00
2019-05-31T12:23:01.469Z,6.90
2019-05-31T12:25:32.833Z,7.20
2019-05-31T12:28:02.929Z,6.03
2019-05-31T12:30:32.826Z,8.47
2019-05-31T12:33:02.569Z,5.40
2019-05-31T12:35:35.028Z,7.60
2019-05-31T12:38:04.863Z,6.13
2019-05-31T12:40:34.571Z,6.20
2019-05-31T12:43:06.535Z,5.47
2019-05-31T12:45:36.258Z,5.23
2019-05-31T12:48:06.359Z,5.00
2019-05-31T12:50:36.175Z,6.40
2019-05-31T12:53:06.188Z,6.57
2019-05-31T12:55:35.817Z,7.67
2019-05-31T12:58:08.120Z,6.90
2019-05-31T13:00:37.893Z,5.93
2019-05-31T13:03:07.606Z,5.40
2019-05-31T13:05:38.173Z,5.20
2019-05-31T13:08:07.957Z,5.40
2019-05-31T13:10:38.084Z,5.50
2019-05-31T13:13:07.761Z,6.07
2019-05-31T13:15:37.567Z,6.60
2019-05-31T13:18:07.340Z,6.43
2019-05-31T13:20:39.483Z,6.60
2019-05-31T13:23:09.516Z,7.53
2019-05-31T13:25:39.326Z,7.30
2019-05-31T13:28:09.095Z,6.30
2019-05-31T13:30:38.954Z,6.63
2019-05-31T13:33:08.766Z,5.77
2019-05-31T13:35:38.962Z,6.87
2019-05-31T13:38:08.719Z,6.13
2019-05-31T13:40:38.800Z,5.97
2019-05-31T13:43:08.905Z,7.00
2019-05-31T13:45:38.460Z,6.07
2019-05-31T13:48:10.429Z,5.90
2019-05-31T13:50:39.711Z,6.57
2019-05-31T13:53:09.428Z,7.00
2019-05-31T13:55:39.147Z,6.97
2019-05-31T13:58:08.992Z,6.97
2019-05-31T14:00:41.978Z,5.90
2019-05-31T14:03:12.240Z,7.00
2019-05-31T14:05:41.925Z,7.60
2019-05-31T14:08:11.591Z,6.50
2019-05-31T14:10:41.496Z,7.40
2019-05-31T14:13:11.298Z,6.20
2019-05-31T14:15:41.009Z,5.57
2019-05-31T14:18:10.692Z,5.17
2019-05-31T14:20:40.449Z,6.77
2019-05-31T14:23:11.475Z,4.90
2019-05-31T14:25:41.397Z,5.83
2019-05-31T14:28:11.861Z,5.57
2019-05-31T14:30:41.524Z,6.30
2019-05-31T14:33:14.364Z,5.53
2019-05-31T14:35:44.404Z,5.83
2019-05-31T14:38:14.094Z,5.67
2019-05-31T14:40:44.309Z,5.00
2019-05-31T14:43:13.994Z,4.87
2019-05-31T14:45:45.301Z,7.77
2019-05-31T14:48:14.972Z,5.30
2019-05-31T14:50:44.640Z,5.50
2019-05-31T14:53:20.185Z,5.10
2019-05-31T14:55:48.767Z,5.13
2019-05-31T14:58:21.825Z,5.23
2019-05-31T15:00:51.234Z,5.07
2019-05-31T15:03:21.393Z,5.20
2019-05-31T15:05:51.184Z,5.10
2019-05-31T15:08:21.499Z,4.70
2019-05-31T15:10:55.770Z,4.43
2019-05-31T15:13:25.914Z,4.00
2019-05-31T15:15:56.419Z,4.80
2019-05-31T15:18:26.434Z,5.20
2019-05-31T15:20:56.851Z,4.03
2019-05-31T15:23:35.902Z,4.90
2019-05-31T15:25:58.939Z,4.80
2019-05-31T15:28:30.537Z,5.40
2019-05-31T15:31:22.922Z,5.47
2019-05-31T15:34:22.835Z,5.40
2019-05-31T15:37:00.204Z,4.70
2019-05-31T15:39:46.482Z,5.60
2019-05-31T15:42:36.002Z,5.30
2019-05-31T15:45:08.823Z,5.40
2019-05-31T15:47:40.404Z,5.90
2019-05-31T15:50:11.542Z,4.70
2019-05-31T15:52:41.212Z,5.80
2019-05-31T15:55:18.046Z,4.40
2019-05-31T15:57:44.463Z,5.27
2019-05-31T16:00:15.719Z,5.30
2019-05-31T16:02:47.150Z,5.70
2019-05-31T16:05:20.396Z,5.07
2019-05-31T16:07:50.245Z,5.47
2019-05-31T16:10:20.096Z,5.20
2019-05-31T16:12:50.345Z,5.70
2019-05-31T16:15:20.285Z,5.37
2019-05-31T16:17:50.746Z,4.70
2019-05-31T16:20:20.679Z,6.07
2019-05-31T16:22:50.375Z,5.67
2019-05-31T16:25:20.142Z,5.57
2019-05-31T16:27:52.096Z,5.90
2019-05-31T16:30:22.018Z,5.37
2019-05-31T16:32:51.660Z,4.83
2019-05-31T16:35:21.483Z,5.60
2019-05-31T16:37:51.406Z,5.00
2019-05-31T16:40:36.847Z,4.40
2019-05-31T16:43:08.420Z,4.73
2019-05-31T16:45:38.832Z,4.90
2019-05-31T16:48:08.977Z,5.03
2019-05-31T16:50:40.325Z,6.20
2019-05-31T16:53:11.082Z,5.07
2019-05-31T16:55:41.313Z,5.87
2019-05-31T16:58:12.190Z,6.23
2019-05-31T17:00:42.000Z,5.53
2019-05-31T17:03:16.313Z,6.60
2019-05-31T17:05:45.521Z,6.60
2019-05-31T17:08:15.196Z,8.10
2019-05-31T17:10:44.796Z,10.10
2019-05-31T17:13:14.488Z,8.37
2019-05-31T17:15:44.358Z,9.10
2019-05-31T17:18:15.392Z,9.27
2019-05-31T17:20:45.777Z,9.33
2019-05-31T17:23:15.974Z,9.80
2019-05-31T17:25:45.605Z,9.97
2019-05-31T17:28:15.200Z,9.60
2019-05-31T17:30:45.030Z,9.40
2019-05-31T17:33:14.606Z,8.50
2019-05-31T17:35:47.333Z,9.13
2019-05-31T17:38:19.161Z,9.43
2019-05-31T17:40:48.909Z,9.60
2019-05-31T17:43:18.616Z,8.87
2019-05-31T17:45:48.324Z,10.17
2019-05-31T17:48:18.046Z,10.30
2019-05-31T17:50:47.706Z,10.20
2019-05-31T17:53:17.332Z,9.70
2019-05-31T17:55:47.044Z,9.87
2019-05-31T17:58:16.746Z,9.97
2019-05-31T18:00:46.544Z,10.03
2019-05-31T18:03:16.692Z,10.13
2019-05-31T18:05:46.372Z,11.47
2019-05-31T18:08:17.160Z,11.13
2019-05-31T18:10:47.415Z,11.40
2019-05-31T18:13:18.645Z,11.40
2019-05-31T18:15:52.188Z,12.63
2019-05-31T18:18:21.884Z,9.80
2019-05-31T18:20:51.619Z,10.50
2019-05-31T18:23:21.921Z,11.10
2019-05-31T18:25:51.512Z,9.80
2019-05-31T18:28:21.262Z,11.33
2019-05-31T18:30:51.040Z,10.03
2019-05-31T18:33:20.846Z,11.47
2019-05-31T18:35:50.606Z,10.47
2019-05-31T18:38:22.266Z,10.63
2019-05-31T18:40:52.201Z,11.00
2019-05-31T18:43:23.685Z,12.13
2019-05-31T18:45:53.281Z,11.50
2019-05-31T18:48:25.825Z,11.77
2019-05-31T18:50:55.405Z,10.87
2019-05-31T18:53:26.208Z,11.70
2019-05-31T18:55:56.040Z,10.80
2019-05-31T18:58:25.665Z,11.13
2019-05-31T19:00:55.411Z,10.57
2019-05-31T19:03:25.082Z,12.53
2019-05-31T19:05:54.820Z,10.50
2019-05-31T19:08:24.676Z,11.07
2019-05-31T19:10:54.622Z,10.23
2019-05-31T19:13:24.361Z,11.30
2019-05-31T19:15:54.324Z,10.97
2019-05-31T19:18:25.716Z,10.90
2019-05-31T19:21:00.943Z,11.13
2019-05-31T19:23:26.759Z,10.17
2019-05-31T19:25:56.975Z,10.00
2019-05-31T19:28:26.801Z,10.23
2019-05-31T19:30:56.602Z,10.80
2019-05-31T19:33:26.314Z,11.67
2019-05-31T19:35:56.492Z,11.40
2019-05-31T19:38:27.217Z,10.40
2019-05-31T19:40:57.199Z,10.70
2019-05-31T19:43:26.893Z,9.90
2019-05-31T19:45:56.635Z,9.20
2019-05-31T19:48:26.332Z,10.17
2019-05-31T19:50:55.911Z,10.30
2019-05-31T19:53:30.726Z,9.40
2019-05-31T19:56:12.711Z,23.43
2019-05-31T19:58:29.750Z,10.83
2019-05-31T20:00:59.462Z,10.40
2019-05-31T20:03:29.149Z,10.47
2019-05-31T20:05:58.964Z,10.60
2019-05-31T20:08:28.947Z,9.90
2019-05-31T20:10:58.713Z,10.03
2019-05-31T20:13:28.313Z,8.90
2019-05-31T20:15:58.449Z,9.23
2019-05-31T20:18:27.972Z,11.10
2019-05-31T20:20:57.499Z,10.10
2019-05-31T20:25:58.404Z,9.23
2019-05-31T20:30:59.694Z,9.70
2019-05-31T20:33:29.589Z,10.80
2019-05-31T20:35:23.736Z,9.07
2019-05-31T20:35:59.620Z,9.43
2019-05-31T20:38:34.677Z,10.27
2019-05-31T20:38:42.401Z,10.40
2019-05-31T20:41:00.626Z,11.63
2019-05-31T20:43:30.248Z,11.10
2019-05-31T20:46:02.016Z,10.60
2019-05-31T20:48:31.651Z,11.10
2019-05-31T20:51:01.265Z,11.87
2019-05-31T20:53:30.962Z,10.60
2019-05-31T20:56:00.608Z,10.37
2019-05-31T20:58:43.151Z,12.03
2019-05-31T21:01:01.525Z,10.40
2019-05-31T21:03:31.868Z,11.17
2019-05-31T21:06:01.810Z,11.30
2019-05-31T21:08:34.281Z,10.43
2019-05-31T21:11:04.008Z,9.80
2019-05-31T21:13:34.784Z,9.90
2019-05-31T21:16:04.602Z,10.07
2019-05-31T21:18:34.306Z,10.10
2019-05-31T21:21:03.942Z,9.97
2019-05-31T21:23:33.747Z,10.90
2019-05-31T21:26:03.432Z,11.30
2019-05-31T21:28:33.448Z,10.20
2019-05-31T21:31:03.602Z,10.33
2019-05-31T21:33:36.401Z,11.40
2019-05-31T21:36:06.502Z,10.10
2019-05-31T21:38:37.229Z,10.13
2019-05-31T21:41:07.062Z,10.00
2019-05-31T21:43:36.765Z,9.73
2019-05-31T21:46:06.537Z,9.93
2019-05-31T21:48:36.157Z,10.37
2019-05-31T21:51:05.967Z,11.00
2019-05-31T21:53:37.490Z,10.80
2019-05-31T21:56:07.478Z,11.17
2019-05-31T21:58:37.206Z,10.27
2019-05-31T22:01:09.029Z,9.83
2019-05-31T22:03:40.905Z,10.23
2019-05-31T22:06:10.263Z,9.53
2019-05-31T22:08:40.001Z,10.70
2019-05-31T22:11:09.681Z,9.57
2019-05-31T22:13:40.778Z,9.83
2019-05-31T22:16:11.176Z,10.20
2019-05-31T22:18:41.018Z,11.00
2019-05-31T22:21:10.609Z,9.40
2019-05-31T22:23:40.175Z,10.23
2019-05-31T22:26:09.815Z,9.97
2019-05-31T22:28:39.552Z,10.23
2019-05-31T22:31:16.309Z,9.47
2019-05-31T22:33:45.909Z,9.10
2019-05-31T22:36:16.022Z,9.90
2019-05-31T22:38:45.728Z,9.30
2019-05-31T22:41:15.415Z,9.80
2019-05-31T22:43:44.994Z,9.70
2019-05-31T22:46:15.066Z,9.83
2019-05-31T22:48:44.794Z,9.87
2019-05-31T22:51:14.365Z,9.87
2019-05-31T22:53:44.485Z,9.37
2019-05-31T22:56:14.291Z,9.37
2019-05-31T22:58:43.975Z,9.70
2019-05-31T23:01:13.807Z,9.63
2019-05-31T23:03:43.519Z,10.17
2019-05-31T23:06:13.153Z,11.00
2019-05-31T23:08:43.336Z,10.00
2019-05-31T23:11:13.215Z,9.77
2019-05-31T23:13:44.116Z,9.30
2019-05-31T23:16:14.270Z,11.10
2019-05-31T23:18:43.826Z,11.23
2019-05-31T23:21:13.546Z,11.17
2019-05-31T23:23:43.622Z,10.93
2019-05-31T23:26:13.822Z,11.03
2019-05-31T23:28:44.031Z,10.60
2019-05-31T23:31:14.034Z,9.93
2019-05-31T23:33:43.837Z,11.27
2019-05-31T23:36:13.735Z,10.53
2019-05-31T23:38:43.762Z,10.20
2019-05-31T23:41:13.723Z,11.40
2019-05-31T23:43:44.600Z,10.67
2019-05-31T23:46:14.417Z,10.77
2019-05-31T23:48:45.780Z,10.47
2019-05-31T23:51:15.458Z,10.20
2019-05-31T23:53:47.634Z,10.53
2019-05-31T23:56:17.196Z,10.67
2019-05-31T23:58:48.135Z,12.67
